createdAt,value
2019-04-26T00:02:04.026Z,55.92
2019-04-26T00:04:32.988Z,56.33
2019-04-26T00:07:02.012Z,56.87
2019-04-26T00:09:35.427Z,55.75
2019-04-26T00:12:18.515Z,56.46
2019-04-26T00:15:05.128Z,56.48
2019-04-26T00:17:35.785Z,56.43
2019-04-26T00:20:07.061Z,56.17
2019-04-26T00:22:35.668Z,56.78
2019-04-26T00:25:05.514Z,57.13
2019-04-26T00:27:34.232Z,57.29
2019-04-26T00:30:03.294Z,57.99
2019-04-26T00:32:31.864Z,58.21
2019-04-26T00:35:00.482Z,57.77
2019-04-26T00:37:29.102Z,58.50
2019-04-26T00:39:57.735Z,58.54
2019-04-26T00:42:26.781Z,58.40
2019-04-26T00:44:55.907Z,58.75
2019-04-26T00:47:29.353Z,59.40
2019-04-26T00:49:58.912Z,58.60
2019-04-26T00:52:28.512Z,59.33
2019-04-26T00:54:58.010Z,58.88
2019-04-26T00:57:28.612Z,59.62
2019-04-26T00:59:57.533Z,59.86
2019-04-26T01:02:37.306Z,60.12
2019-04-26T01:05:06.118Z,60.26
2019-04-26T01:07:34.727Z,60.48
2019-04-26T01:10:03.760Z,60.63
2019-04-26T01:12:32.495Z,60.96
2019-04-26T01:15:01.104Z,61.07
2019-04-26T01:17:29.728Z,61.33
2019-04-26T01:19:59.919Z,61.38
2019-04-26T01:22:31.572Z,62.35
2019-04-26T01:25:02.430Z,62.79
2019-04-26T01:27:32.524Z,62.71
2019-04-26T01:30:04.170Z,62.93
2019-04-26T01:33:26.147Z,63.31
2019-04-26T01:35:55.209Z,64.06
2019-04-26T01:38:23.930Z,63.95
2019-04-26T01:40:54.828Z,63.96
2019-04-26T01:43:33.621Z,64.36
2019-04-26T01:46:09.266Z,64.75
2019-04-26T01:48:47.054Z,64.88
2019-04-26T01:51:22.688Z,65.23
2019-04-26T01:53:52.827Z,65.33
2019-04-26T01:56:25.445Z,65.84
2019-04-26T01:58:57.197Z,65.86
2019-04-26T02:01:28.048Z,65.98
2019-04-26T02:04:00.682Z,65.89
2019-04-26T02:06:33.268Z,65.99
2019-04-26T02:08:59.288Z,66.23
2019-04-26T02:11:28.766Z,66.23
2019-04-26T02:13:57.433Z,66.43
2019-04-26T02:16:27.010Z,66.70
2019-04-26T02:18:55.691Z,66.83
2019-04-26T02:21:26.500Z,67.09
2019-04-26T02:24:06.847Z,67.21
2019-04-26T02:26:37.516Z,67.54
2019-04-26T02:29:14.742Z,67.78
2019-04-26T02:31:46.352Z,67.98
2019-04-26T02:34:16.285Z,68.44
2019-04-26T02:36:57.255Z,68.61
2019-04-26T02:39:20.897Z,68.48
2019-04-26T02:41:52.829Z,68.80
2019-04-26T02:44:26.700Z,68.88
2019-04-26T02:47:35.084Z,69.28
2019-04-26T02:50:20.595Z,69.59
2019-04-26T02:53:10.801Z,69.70
2019-04-26T02:55:57.355Z,69.91
2019-04-26T02:58:30.080Z,70.40
2019-04-26T03:01:00.604Z,70.89
2019-04-26T03:03:31.675Z,71.56
2019-04-26T03:06:02.283Z,71.29
2019-04-26T03:08:35.364Z,71.48
2019-04-26T03:11:07.379Z,71.63
2019-04-26T03:13:40.705Z,71.93
2019-04-26T03:16:25.606Z,71.93
2019-04-26T03:19:01.803Z,72.30
2019-04-26T03:21:47.830Z,72.48
2019-04-26T03:24:25.176Z,72.76
2019-04-26T03:27:12.139Z,73.17
2019-04-26T03:30:21.167Z,73.44
2019-04-26T03:33:08.699Z,73.70
2019-04-26T03:36:02.998Z,74.03
2019-04-26T03:38:43.579Z,74.24
2019-04-26T03:41:42.885Z,74.33
2019-04-26T03:44:26.297Z,74.49
2019-04-26T03:46:57.965Z,74.99
2019-04-26T03:49:33.879Z,75.14
2019-04-26T03:52:25.205Z,75.31
2019-04-26T03:54:56.887Z,75.22
2019-04-26T03:57:46.797Z,75.41
2019-04-26T04:00:22.668Z,75.58
2019-04-26T04:03:01.506Z,75.85
2019-04-26T04:05:41.983Z,76.20
2019-04-26T04:08:14.246Z,76.61
2019-04-26T04:10:58.234Z,76.55
2019-04-26T04:13:51.012Z,76.60
2019-04-26T04:16:33.593Z,76.67
2019-04-26T04:19:24.644Z,76.86
2019-04-26T04:22:07.693Z,76.62
2019-04-26T04:24:41.370Z,76.98
2019-04-26T04:27:31.751Z,76.93
2019-04-26T04:30:06.513Z,77.14
2019-04-26T04:32:52.026Z,77.29
2019-04-26T04:35:23.905Z,77.34
2019-04-26T04:38:08.472Z,77.45
2019-04-26T04:40:33.833Z,77.50
2019-04-26T04:43:19.099Z,77.64
2019-04-26T04:46:19.059Z,77.84
2019-04-26T04:49:06.753Z,78.16
2019-04-26T04:51:59.040Z,78.25
2019-04-26T04:55:06.774Z,78.14
2019-04-26T04:57:48.143Z,78.27
2019-04-26T05:00:39.404Z,78.41
2019-04-26T05:03:27.831Z,78.68
2019-04-26T05:06:18.966Z,78.87
2019-04-26T05:08:55.391Z,79.27
2019-04-26T05:11:36.124Z,78.88
2019-04-26T05:14:27.350Z,78.89
2019-04-26T05:17:02.062Z,79.02
2019-04-26T05:19:56.515Z,78.87
2019-04-26T05:22:43.455Z,79.17
2019-04-26T05:25:46.863Z,78.60
2019-04-26T05:28:57.035Z,79.01
2019-04-26T05:31:32.578Z,78.60
2019-04-26T05:34:17.595Z,78.79
2019-04-26T05:37:04.418Z,77.45
2019-04-26T05:39:57.473Z,77.94
2019-04-26T05:43:03.654Z,77.07
2019-04-26T05:45:50.003Z,76.24
2019-04-26T05:48:52.048Z,77.07
2019-04-26T05:51:57.836Z,77.32
2019-04-26T05:54:56.149Z,76.77
2019-04-26T05:57:46.310Z,76.26
2019-04-26T06:00:25.265Z,74.86
2019-04-26T06:03:33.720Z,74.66
2019-04-26T06:06:47.530Z,73.25
2019-04-26T06:09:58.634Z,74.18
2019-04-26T06:12:52.418Z,73.35
2019-04-26T06:15:34.645Z,72.35
2019-04-26T06:18:16.922Z,71.21
2019-04-26T06:20:55.423Z,71.01
2019-04-26T06:23:38.864Z,71.00
2019-04-26T06:26:41.755Z,69.67
2019-04-26T06:29:39.034Z,69.35
2019-04-26T06:32:16.741Z,69.29
2019-04-26T06:34:57.216Z,69.12
2019-04-26T06:37:46.974Z,67.50
2019-04-26T06:40:41.935Z,68.72
2019-04-26T06:43:14.907Z,67.08
2019-04-26T06:46:06.035Z,68.46
2019-04-26T06:49:11.998Z,67.76
2019-04-26T06:51:57.010Z,66.57
2019-04-26T06:54:46.472Z,64.71
2019-04-26T06:57:59.350Z,64.35
2019-04-26T07:00:38.815Z,63.99
2019-04-26T07:03:42.080Z,61.78
2019-04-26T07:06:13.981Z,62.07
2019-04-26T07:08:57.722Z,60.11
2019-04-26T07:11:38.423Z,60.30
2019-04-26T07:14:43.701Z,58.99
2019-04-26T07:17:18.660Z,58.61
2019-04-26T07:20:23.357Z,59.55
2019-04-26T07:23:05.961Z,58.56
2019-04-26T07:25:59.206Z,58.82
2019-04-26T07:29:05.020Z,57.37
2019-04-26T07:31:58.416Z,58.81
2019-04-26T07:34:53.047Z,56.22
2019-04-26T07:37:49.328Z,55.76
2019-04-26T07:40:46.458Z,56.62
2019-04-26T07:43:25.639Z,54.50
2019-04-26T07:46:17.835Z,52.99
2019-04-26T07:49:12.508Z,55.03
2019-04-26T07:51:53.749Z,55.59
2019-04-26T07:55:03.234Z,53.98
2019-04-26T07:57:50.085Z,55.87
2019-04-26T08:00:45.322Z,54.85
2019-04-26T08:03:27.710Z,53.81
2019-04-26T08:06:23.821Z,54.36
2019-04-26T08:08:56.354Z,53.69
2019-04-26T08:11:34.643Z,52.69
2019-04-26T08:14:13.080Z,51.71
2019-04-26T08:17:04.826Z,50.24
2019-04-26T08:19:39.519Z,50.99
2019-04-26T08:22:18.471Z,49.79
2019-04-26T08:24:44.276Z,51.66
2019-04-26T08:27:22.812Z,50.57
2019-04-26T08:29:49.730Z,48.57
2019-04-26T08:32:22.328Z,47.92
2019-04-26T08:34:57.090Z,49.52
2019-04-26T08:37:46.397Z,47.60
2019-04-26T08:40:23.302Z,47.28
2019-04-26T08:42:48.010Z,46.81
2019-04-26T08:45:20.554Z,46.26
2019-04-26T08:50:30.239Z,45.95
2019-04-26T08:53:02.647Z,47.58
2019-04-26T08:55:34.124Z,44.15
2019-04-26T08:58:06.115Z,44.17
2019-04-26T09:00:42.339Z,44.31
2019-04-26T09:03:14.951Z,43.63
2019-04-26T09:06:05.441Z,43.90
2019-04-26T09:08:39.267Z,43.80
2019-04-26T09:11:23.655Z,41.70
2019-04-26T09:13:43.976Z,42.67
2019-04-26T09:16:15.835Z,40.28
2019-04-26T09:18:52.489Z,41.08
2019-04-26T09:21:17.622Z,40.26
2019-04-26T09:23:53.873Z,41.77
2019-04-26T09:26:30.131Z,41.13
2019-04-26T09:29:18.868Z,42.11
2019-04-26T09:31:50.456Z,41.12
2019-04-26T09:34:30.241Z,41.92
2019-04-26T09:36:58.862Z,41.75
2019-04-26T09:39:27.699Z,41.91
2019-04-26T09:42:01.247Z,40.59
2019-04-26T09:44:41.475Z,39.87
2019-04-26T09:47:11.165Z,39.80
2019-04-26T09:49:47.096Z,39.25
2019-04-26T09:52:19.996Z,39.92
2019-04-26T09:54:48.615Z,39.65
2019-04-26T09:57:17.234Z,38.37
2019-04-26T09:59:46.303Z,41.20
2019-04-26T10:02:15.176Z,38.62
2019-04-26T10:04:43.802Z,38.71
2019-04-26T10:07:12.497Z,39.66
2019-04-26T10:09:41.117Z,39.24
2019-04-26T10:12:11.365Z,38.31
2019-04-26T10:14:46.472Z,39.05
2019-04-26T10:17:17.464Z,40.44
2019-04-26T10:19:53.898Z,41.89
2019-04-26T10:22:26.311Z,41.90
2019-04-26T10:24:56.774Z,41.12
2019-04-26T10:27:28.055Z,41.13
2019-04-26T10:30:07.786Z,41.70
2019-04-26T10:32:28.664Z,42.58
2019-04-26T10:34:57.276Z,41.69
2019-04-26T10:37:38.884Z,41.97
2019-04-26T10:39:57.784Z,42.16
2019-04-26T10:42:27.024Z,40.79
2019-04-26T10:44:55.618Z,41.12
2019-04-26T10:47:26.708Z,41.95
2019-04-26T10:49:58.277Z,41.66
2019-04-26T10:52:49.405Z,41.43
2019-04-26T10:55:21.951Z,42.01
2019-04-26T10:57:58.762Z,40.38
2019-04-26T11:00:31.784Z,40.58
2019-04-26T11:03:04.431Z,40.98
2019-04-26T11:05:30.790Z,40.99
2019-04-26T11:07:59.396Z,43.07
2019-04-26T11:10:29.508Z,39.50
2019-04-26T11:12:58.068Z,38.85
2019-04-26T11:15:29.126Z,39.78
2019-04-26T11:17:57.959Z,39.66
2019-04-26T11:20:28.220Z,40.86
2019-04-26T11:22:59.605Z,40.16
2019-04-26T12:09:26.351Z,37.74
2019-04-26T12:12:04.382Z,37.04
2019-04-26T12:14:29.442Z,38.25
2019-04-26T12:16:59.594Z,36.71
2019-04-26T12:19:27.747Z,37.17
2019-04-26T12:21:56.278Z,38.62
2019-04-26T12:24:29.566Z,38.53
2019-04-26T12:26:57.577Z,37.98
2019-04-26T12:29:26.283Z,38.49
2019-04-26T12:31:56.483Z,38.99
2019-04-26T12:34:25.263Z,38.19
2019-04-26T12:36:53.917Z,37.80
2019-04-26T12:39:23.085Z,36.67
2019-04-26T12:41:51.798Z,35.69
2019-04-26T12:44:20.923Z,36.60
2019-04-26T12:47:05.154Z,35.94
2019-04-26T12:49:35.465Z,36.34
2019-04-26T12:52:04.372Z,36.40
2019-04-26T12:54:32.982Z,35.76
2019-04-26T12:57:05.730Z,34.92
2019-04-26T12:59:43.634Z,35.63
2019-04-26T13:02:05.808Z,35.54
2019-04-26T13:04:36.197Z,35.23
2019-04-26T13:07:22.663Z,35.07
2019-04-26T13:09:43.389Z,35.99
2019-04-26T13:12:13.740Z,36.42
2019-04-26T13:14:59.976Z,37.76
2019-04-26T13:17:31.309Z,38.22
2019-04-26T13:20:00.926Z,38.85
2019-04-26T13:22:31.939Z,38.56
2019-04-26T13:24:59.966Z,38.27
2019-04-26T13:27:28.994Z,37.61
2019-04-26T13:30:02.608Z,38.44
2019-04-26T13:32:28.483Z,38.15
2019-04-26T13:34:57.046Z,38.15
2019-04-26T13:37:25.691Z,38.01
2019-04-26T13:39:55.162Z,39.35
2019-04-26T13:42:26.503Z,37.29
2019-04-26T13:44:56.701Z,37.89
2019-04-26T13:47:42.897Z,36.64
2019-04-26T13:50:13.357Z,36.42
2019-04-26T13:52:41.961Z,37.18
2019-04-26T13:55:10.669Z,37.38
2019-04-26T13:57:40.255Z,36.92
2019-04-26T14:00:11.990Z,37.50
2019-04-26T14:02:40.599Z,37.61
2019-04-26T14:05:11.149Z,37.24
2019-04-26T14:07:39.866Z,37.28
2019-04-26T14:10:08.578Z,37.72
2019-04-26T14:12:37.460Z,37.87
2019-04-26T14:15:08.638Z,37.00
2019-04-26T14:17:37.051Z,36.38
2019-04-26T14:20:06.553Z,35.31
2019-04-26T14:22:37.118Z,35.54
2019-04-26T14:25:11.944Z,35.61
2019-04-26T14:27:49.539Z,36.26
2019-04-26T14:30:16.642Z,36.41
2019-04-26T14:32:45.288Z,37.32
2019-04-26T14:35:15.741Z,37.02
2019-04-26T14:37:45.524Z,36.62
2019-04-26T14:40:18.039Z,36.43
2019-04-26T14:42:46.968Z,36.66
2019-04-26T14:45:23.224Z,37.10
2019-04-26T14:47:47.550Z,37.16
2019-04-26T14:50:16.650Z,37.30
2019-04-26T14:52:45.732Z,37.15
2019-04-26T14:55:16.595Z,34.85
2019-04-26T14:57:46.808Z,35.22
2019-04-26T15:00:16.824Z,34.08
2019-04-26T15:02:50.227Z,35.17
2019-04-26T15:05:26.301Z,34.21
2019-04-26T15:07:56.559Z,34.11
2019-04-26T15:10:26.810Z,34.02
2019-04-26T15:13:12.463Z,34.83
2019-04-26T15:15:33.257Z,34.88
2019-04-26T15:17:59.758Z,33.41
2019-04-26T15:20:29.159Z,32.50
2019-04-26T15:22:57.768Z,34.14
2019-04-26T15:25:26.374Z,34.96
2019-04-26T15:27:54.995Z,36.55
2019-04-26T15:30:24.999Z,36.51
2019-04-26T15:32:54.660Z,36.38
2019-04-26T15:35:23.713Z,36.84
2019-04-26T15:37:53.459Z,36.07
2019-04-26T15:40:27.341Z,35.06
2019-04-26T15:43:14.346Z,36.01
2019-04-26T15:45:42.545Z,35.52
2019-04-26T15:48:16.163Z,35.54
2019-04-26T15:50:50.261Z,34.21
2019-04-26T15:53:15.564Z,34.42
2019-04-26T15:55:44.120Z,34.87
2019-04-26T15:58:12.914Z,36.52
2019-04-26T16:00:42.889Z,37.65
2019-04-26T16:03:12.821Z,38.47
2019-04-26T16:05:43.311Z,39.43
2019-04-26T16:08:13.053Z,39.87
2019-04-26T16:10:43.033Z,39.95
2019-04-26T16:13:21.465Z,40.45
2019-04-26T16:15:43.578Z,40.80
2019-04-26T16:18:17.005Z,40.74
2019-04-26T16:20:44.370Z,40.61
2019-04-26T16:23:13.579Z,41.00
2019-04-26T16:25:42.878Z,41.17
2019-04-26T16:28:16.333Z,41.52
2019-04-26T16:30:53.176Z,42.35
2019-04-26T16:33:28.349Z,42.33
2019-04-26T16:35:57.470Z,42.20
2019-04-26T16:38:34.296Z,43.06
2019-04-26T16:41:03.477Z,43.47
2019-04-26T16:43:37.750Z,42.75
2019-04-26T16:46:02.551Z,42.84
2019-04-26T16:48:31.166Z,43.03
2019-04-26T16:51:00.897Z,42.94
2019-04-26T17:22:56.997Z,47.21
2019-04-26T17:25:37.653Z,47.24
2019-04-26T17:28:06.374Z,46.80
2019-04-26T17:30:40.995Z,47.31
2019-04-26T17:33:05.436Z,47.91
2019-04-26T17:35:36.722Z,48.07
2019-04-26T17:38:05.172Z,48.66
2019-04-26T17:40:36.668Z,48.93
2019-04-26T17:43:05.459Z,49.31
2019-04-26T17:45:36.243Z,49.72
2019-04-26T17:48:06.501Z,50.14
2019-04-26T17:50:38.878Z,50.37
2019-04-26T17:53:06.546Z,50.76
2019-04-26T17:55:36.123Z,50.98
2019-04-26T17:58:11.811Z,51.43
2019-04-26T18:00:46.081Z,52.72
2019-04-26T18:03:12.547Z,52.20
2019-04-26T18:05:50.070Z,52.82
2019-04-26T18:08:31.606Z,53.28
2019-04-26T18:10:41.957Z,53.86
2019-04-26T18:13:16.363Z,54.37
2019-04-26T18:15:46.343Z,54.58
2019-04-26T18:18:18.049Z,55.01
2019-04-26T18:20:51.171Z,54.89
2019-04-26T18:23:21.426Z,55.53
2019-04-26T18:25:50.030Z,55.72
2019-04-26T18:28:18.741Z,56.16
2019-04-26T18:30:47.823Z,56.67
2019-04-26T18:33:17.620Z,57.05
2019-04-26T18:35:49.131Z,57.20
2019-04-26T18:38:17.696Z,57.39
2019-04-26T18:40:59.987Z,57.83
2019-04-26T18:43:21.670Z,58.27
2019-04-26T18:45:48.546Z,57.74
2019-04-26T18:48:17.564Z,58.13
2019-04-26T18:50:46.177Z,58.20
2019-04-26T18:53:19.510Z,58.62
2019-04-26T18:55:51.378Z,59.35
2019-04-26T18:58:19.995Z,59.33
2019-04-26T19:31:33.729Z,61.13
2019-04-26T19:34:02.590Z,61.43
2019-04-26T19:36:32.852Z,61.96
2019-04-26T19:39:03.637Z,62.47
2019-04-26T19:41:32.332Z,61.89
2019-04-26T19:44:01.765Z,62.10
2019-04-26T19:46:32.238Z,62.14
2019-04-26T19:49:07.939Z,62.42
2019-04-26T19:51:38.202Z,62.33
2019-04-26T19:54:31.394Z,62.45
2019-04-26T19:57:03.560Z,62.69
2019-04-26T19:59:33.212Z,62.95
2019-04-26T20:02:01.574Z,62.91
2019-04-26T20:04:33.857Z,62.77
2019-04-26T20:07:01.346Z,62.98
2019-04-26T20:09:31.806Z,63.15
2019-04-26T20:12:02.522Z,63.60
2019-04-26T20:14:45.044Z,63.58
2019-04-26T20:17:02.071Z,64.09
2019-04-26T20:19:35.210Z,63.84
2019-04-26T20:22:01.892Z,64.65
2019-04-26T20:24:31.487Z,64.46
2019-04-26T20:27:03.132Z,64.51
2019-04-26T20:29:32.184Z,64.55
2019-04-26T20:32:09.101Z,64.56
2019-04-26T20:34:37.708Z,64.56
2019-04-26T20:37:06.422Z,64.85
2019-04-26T20:39:35.458Z,65.05
2019-04-26T20:42:04.156Z,64.87
2019-04-26T20:44:48.060Z,65.49
2019-04-26T20:47:07.621Z,65.16
2019-04-26T20:49:34.027Z,64.92
2019-04-26T20:52:02.749Z,64.97
2019-04-26T20:54:31.647Z,65.20
2019-04-26T20:57:01.866Z,65.43
2019-04-26T20:59:30.874Z,65.37
2019-04-26T21:02:04.678Z,65.35
2019-04-26T21:04:37.957Z,65.33
2019-04-26T21:07:01.885Z,65.29
2019-04-26T21:09:32.268Z,65.43
2019-04-26T21:12:01.926Z,65.43
2019-04-26T21:14:31.619Z,65.61
2019-04-26T21:17:00.344Z,65.75
2019-04-26T21:19:28.948Z,65.66
2019-04-26T21:21:57.780Z,65.86
2019-04-26T21:24:28.037Z,65.84
2019-04-26T21:26:59.921Z,66.09
2019-04-26T21:29:46.071Z,66.20
2019-04-26T21:32:20.280Z,66.11
2019-04-26T21:34:53.505Z,66.23
2019-04-26T21:37:23.301Z,66.04
2019-04-26T21:40:09.183Z,66.35
2019-04-26T21:42:37.861Z,66.77
2019-04-26T21:45:07.585Z,67.07
2019-04-26T21:47:37.228Z,66.94
2019-04-26T21:50:07.584Z,67.51
2019-04-26T21:52:36.198Z,67.33
2019-04-26T21:55:06.774Z,67.55
2019-04-26T21:57:35.374Z,68.71
2019-04-26T22:00:07.042Z,71.06
2019-04-26T22:02:37.460Z,77.91
2019-04-26T22:05:08.005Z,81.39
2019-04-26T22:07:39.527Z,86.51
2019-04-26T22:10:10.678Z,88.91
2019-04-26T22:12:39.712Z,90.96
2019-04-26T22:15:19.938Z,93.20
2019-04-26T22:17:50.188Z,93.86
2019-04-26T22:20:38.462Z,95.22
2019-04-26T22:23:16.030Z,96.06
2019-04-26T22:25:43.669Z,96.31
2019-04-26T22:28:13.065Z,97.27
2019-04-26T22:30:41.823Z,97.11
2019-04-26T22:33:10.642Z,96.77
2019-04-26T22:35:39.558Z,96.72
2019-04-26T22:38:08.165Z,97.00
2019-04-26T22:40:36.775Z,97.36
2019-04-26T22:43:16.281Z,98.16
2019-04-26T22:45:46.918Z,98.54
2019-04-26T22:48:23.155Z,98.54
2019-04-26T22:50:47.545Z,98.44
2019-04-26T22:53:16.228Z,98.56
2019-04-26T22:55:44.835Z,98.57
2019-04-26T22:58:13.576Z,99.17
2019-04-26T23:00:43.616Z,99.23
2019-04-26T23:03:13.730Z,99.01
2019-04-26T23:05:43.253Z,99.31
2019-04-26T23:08:13.571Z,99.76
2019-04-26T23:10:49.814Z,99.81
2019-04-26T23:13:25.693Z,100.00
2019-04-26T23:15:56.005Z,100.00
2019-04-26T23:18:33.442Z,99.97
2019-04-26T23:21:07.801Z,99.75
2019-04-26T23:23:46.147Z,99.37
2019-04-26T23:26:15.133Z,98.97
2019-04-26T23:28:43.686Z,98.61
2019-04-26T23:31:13.419Z,98.69
2019-04-26T23:33:42.934Z,98.76
2019-04-26T23:36:13.479Z,98.71
2019-04-26T23:38:43.502Z,98.83
2019-04-26T23:41:14.166Z,98.87
2019-04-26T23:43:42.943Z,99.12
2019-04-26T23:46:14.310Z,99.10
2019-04-26T23:48:48.482Z,99.02
2019-04-26T23:51:13.102Z,98.87
2019-04-26T23:53:42.862Z,99.37
2019-04-26T23:56:16.168Z,99.68
2019-04-26T23:58:44.148Z,99.83
